createdAt,value
2022-11-16T00:01:40.947Z,95.35
2022-11-16T00:04:24.543Z,94.73
2022-11-16T00:07:08.634Z,93.75
2022-11-16T00:09:52.352Z,95.04
2022-11-16T00:12:36.021Z,95.12
2022-11-16T00:15:19.792Z,94.99
2022-11-16T00:18:03.456Z,94.38
2022-11-16T00:20:47.138Z,95.10
2022-11-16T00:23:31.123Z,95.11
2022-11-16T00:26:14.949Z,95.20
2022-11-16T00:28:59.360Z,95.43
2022-11-16T00:31:43.878Z,95.96
2022-11-16T00:34:27.562Z,96.22
2022-11-16T00:37:11.273Z,95.24
2022-11-16T00:39:54.982Z,94.71
2022-11-16T00:42:38.669Z,94.78
2022-11-16T00:45:22.277Z,95.37
2022-11-16T00:48:06.658Z,93.98
2022-11-16T00:50:50.500Z,93.46
2022-11-16T00:53:36.143Z,94.93
2022-11-16T00:56:19.870Z,95.13
2022-11-16T00:59:03.876Z,95.26
2022-11-16T01:01:47.551Z,94.46
2022-11-16T01:04:31.183Z,93.97
2022-11-16T01:07:16.242Z,93.60
2022-11-16T01:09:59.786Z,93.51
2022-11-16T01:12:45.217Z,94.12
2022-11-16T01:15:29.877Z,94.77
2022-11-16T01:18:13.405Z,94.51
2022-11-16T01:20:57.020Z,93.90
2022-11-16T01:23:40.617Z,93.70
2022-11-16T01:26:25.101Z,93.58
2022-11-16T01:29:08.847Z,93.79
2022-11-16T01:31:57.479Z,93.92
2022-11-16T01:34:41.115Z,93.42
2022-11-16T01:37:47.111Z,93.74
2022-11-16T01:40:31.765Z,93.93
2022-11-16T01:43:24.346Z,93.73
2022-11-16T01:46:10.651Z,92.74
2022-11-16T01:49:07.118Z,91.50
2022-11-16T01:52:01.155Z,92.16
2022-11-16T01:54:51.459Z,92.01
2022-11-16T01:57:42.587Z,91.07
2022-11-16T02:00:26.400Z,91.75
2022-11-16T02:03:23.041Z,92.86
2022-11-16T02:06:21.132Z,92.98
2022-11-16T02:09:55.524Z,92.28
2022-11-16T02:13:25.582Z,93.33
2022-11-16T02:16:28.101Z,93.41
2022-11-16T02:20:01.927Z,92.26
2022-11-16T02:23:19.613Z,93.58
2022-11-16T02:26:33.738Z,93.87
2022-11-16T02:29:35.663Z,92.84
2022-11-16T02:32:46.337Z,92.54
2022-11-16T02:35:45.569Z,92.32
2022-11-16T02:38:40.550Z,93.03
2022-11-16T02:41:32.036Z,94.74
2022-11-16T02:44:40.211Z,94.43
2022-11-16T02:47:31.834Z,95.06
2022-11-16T02:50:19.754Z,94.34
2022-11-16T02:53:04.319Z,94.71
2022-11-16T02:55:50.399Z,96.10
2022-11-16T02:58:34.256Z,95.61
2022-11-16T03:01:44.301Z,95.32
2022-11-16T03:04:43.543Z,95.33
2022-11-16T03:07:44.785Z,95.82
2022-11-16T03:10:47.890Z,95.16
2022-11-16T03:13:35.960Z,95.22
2022-11-16T03:16:27.050Z,94.35
2022-11-16T03:19:18.591Z,93.88
2022-11-16T03:22:23.998Z,96.56
2022-11-16T03:25:12.130Z,95.71
2022-11-16T03:28:12.725Z,94.95
2022-11-16T03:31:06.178Z,95.26
2022-11-16T03:33:58.764Z,95.25
2022-11-16T03:36:47.228Z,95.20
2022-11-16T03:39:37.869Z,94.61
2022-11-16T03:42:26.224Z,93.73
2022-11-16T03:45:13.532Z,92.36
2022-11-16T03:47:58.771Z,93.70
2022-11-16T03:50:43.932Z,95.08
2022-11-16T03:53:27.710Z,94.65
2022-11-16T03:56:11.291Z,95.30
2022-11-16T03:58:55.768Z,94.90
2022-11-16T04:01:44.566Z,94.15
2022-11-16T04:04:48.079Z,94.34
2022-11-16T04:07:50.662Z,95.47
2022-11-16T04:10:53.789Z,95.61
2022-11-16T04:13:55.992Z,95.27
2022-11-16T04:16:58.069Z,96.73
2022-11-16T04:20:00.266Z,96.76
2022-11-16T04:23:26.834Z,96.90
2022-11-16T04:26:12.134Z,96.83
2022-11-16T04:28:55.852Z,97.02
2022-11-16T04:31:58.737Z,96.81
2022-11-16T04:35:00.988Z,95.56
2022-11-16T04:37:54.886Z,95.62
2022-11-16T04:40:44.655Z,96.58
2022-11-16T04:43:29.928Z,97.19
2022-11-16T04:46:32.186Z,98.03
2022-11-16T04:49:16.026Z,98.63
2022-11-16T04:52:00.705Z,98.46
2022-11-16T04:54:47.087Z,97.72
2022-11-16T04:57:30.564Z,97.35
2022-11-16T05:00:16.011Z,97.89
2022-11-16T05:03:01.724Z,97.98
2022-11-16T05:05:46.583Z,96.79
2022-11-16T05:08:30.526Z,96.44
2022-11-16T05:11:15.890Z,96.68
2022-11-16T05:13:59.632Z,96.90
2022-11-16T05:16:43.265Z,97.32
2022-11-16T05:19:45.388Z,97.04
2022-11-16T05:22:29.709Z,96.45
2022-11-16T05:25:14.273Z,96.40
2022-11-16T05:27:58.039Z,96.58
2022-11-16T05:30:46.000Z,96.60
2022-11-16T05:33:34.279Z,96.78
2022-11-16T05:36:18.103Z,96.62
2022-11-16T05:39:02.157Z,96.72
2022-11-16T05:41:48.712Z,95.43
2022-11-16T05:44:32.943Z,95.37
2022-11-16T05:47:16.564Z,95.28
2022-11-16T05:50:00.388Z,94.79
2022-11-16T05:52:49.039Z,93.94
2022-11-16T05:55:35.340Z,94.88
2022-11-16T05:58:19.221Z,95.58
2022-11-16T06:01:04.449Z,95.72
2022-11-16T06:03:48.827Z,95.53
2022-11-16T06:06:32.332Z,95.51
2022-11-16T06:09:16.131Z,95.68
2022-11-16T06:11:59.918Z,94.99
2022-11-16T06:14:44.395Z,95.60
2022-11-16T06:17:28.088Z,95.43
2022-11-16T06:20:12.680Z,95.34
2022-11-16T06:22:57.107Z,94.48
2022-11-16T06:28:43.159Z,93.60
2022-11-16T06:31:26.793Z,93.78
2022-11-16T06:34:11.515Z,93.67
2022-11-16T06:36:55.248Z,93.33
2022-11-16T06:39:39.032Z,93.28
2022-11-16T06:42:22.871Z,93.55
2022-11-16T06:45:06.753Z,93.99
2022-11-16T06:47:56.038Z,93.78
2022-11-16T06:50:40.266Z,94.52
2022-11-16T06:53:28.938Z,94.61
2022-11-16T06:56:16.469Z,94.73
2022-11-16T06:59:05.875Z,94.57
2022-11-16T07:01:49.672Z,94.63
2022-11-16T07:04:33.525Z,93.32
2022-11-16T07:07:17.169Z,93.50
2022-11-16T07:10:02.575Z,93.92
2022-11-16T07:12:47.470Z,93.70
2022-11-16T07:15:33.194Z,93.43
2022-11-16T07:18:16.690Z,93.32
2022-11-16T07:21:00.425Z,93.94
2022-11-16T07:23:44.744Z,93.43
2022-11-16T07:26:33.894Z,94.77
2022-11-16T07:29:31.547Z,94.13
2022-11-16T07:32:44.310Z,95.23
2022-11-16T07:35:33.075Z,96.45
2022-11-16T07:38:18.346Z,95.79
2022-11-16T07:41:15.232Z,95.42
2022-11-16T07:44:11.759Z,95.05
2022-11-16T07:46:57.495Z,94.99
2022-11-16T07:49:41.935Z,95.38
2022-11-16T07:52:29.920Z,95.36
2022-11-16T07:55:33.349Z,95.02
2022-11-16T07:58:18.400Z,96.95
2022-11-16T08:01:08.323Z,96.02
2022-11-16T08:03:54.231Z,96.23
2022-11-16T08:06:37.791Z,96.40
2022-11-16T08:09:21.417Z,96.15
2022-11-16T08:12:07.047Z,96.22
2022-11-16T08:14:51.252Z,95.91
2022-11-16T08:17:34.790Z,95.99
2022-11-16T08:20:20.293Z,96.51
2022-11-16T08:23:05.067Z,96.18
2022-11-16T08:25:51.333Z,96.05
2022-11-16T08:28:35.650Z,96.17
2022-11-16T08:31:27.141Z,95.25
2022-11-16T08:34:16.551Z,96.75
2022-11-16T08:37:03.344Z,97.20
2022-11-16T08:39:59.666Z,97.03
2022-11-16T08:42:44.012Z,96.67
2022-11-16T08:45:28.632Z,97.00
2022-11-16T08:48:13.759Z,97.04
2022-11-16T08:51:17.586Z,96.60
2022-11-16T08:54:06.386Z,95.82
2022-11-16T08:56:52.796Z,95.77
2022-11-16T08:59:36.607Z,95.77
2022-11-16T09:02:25.826Z,96.25
2022-11-16T09:05:12.111Z,96.39
2022-11-16T09:07:55.855Z,96.44
2022-11-16T09:10:39.354Z,96.61
2022-11-16T09:13:23.086Z,96.64
2022-11-16T09:16:06.795Z,96.66
2022-11-16T09:18:52.139Z,96.95
2022-11-16T09:21:37.622Z,96.04
2022-11-16T09:24:21.147Z,96.31
2022-11-16T09:27:04.777Z,96.23
2022-11-16T09:29:48.297Z,96.56
2022-11-16T09:32:31.800Z,96.99
2022-11-16T09:35:15.305Z,96.73
2022-11-16T09:37:58.812Z,96.77
2022-11-16T09:40:47.177Z,96.57
2022-11-16T09:44:19.648Z,97.35
2022-11-16T09:47:04.945Z,96.75
2022-11-16T09:50:03.568Z,96.36
2022-11-16T09:52:55.536Z,96.30
2022-11-16T09:55:53.150Z,97.52
2022-11-16T09:59:06.458Z,96.72
2022-11-16T10:02:02.078Z,96.33
2022-11-16T10:05:46.300Z,96.21
2022-11-16T10:08:48.064Z,95.18
2022-11-16T10:11:49.682Z,94.56
2022-11-16T10:15:04.950Z,94.65
2022-11-16T10:18:09.148Z,95.70
2022-11-16T10:21:35.132Z,95.85
2022-11-16T10:24:30.306Z,95.65
2022-11-16T10:27:22.165Z,94.58
2022-11-16T10:30:15.973Z,95.05
2022-11-16T10:33:13.036Z,94.84
2022-11-16T10:35:57.051Z,94.93
2022-11-16T10:38:43.831Z,94.94
2022-11-16T11:01:53.212Z,93.02
2022-11-16T11:04:39.143Z,92.41
2022-11-16T11:16:19.033Z,92.24
2022-11-16T11:19:25.770Z,91.67
2022-11-16T11:22:15.017Z,91.23
2022-11-16T11:24:59.057Z,90.70
2022-11-16T11:27:42.917Z,91.00
2022-11-16T11:30:26.614Z,91.14
2022-11-16T11:33:12.392Z,90.93
2022-11-16T11:36:18.718Z,91.16
2022-11-16T11:39:12.664Z,90.57
2022-11-16T11:42:05.614Z,90.14
2022-11-16T11:45:06.641Z,89.86
2022-11-16T11:48:00.920Z,90.38
2022-11-16T11:50:58.941Z,89.95
2022-11-16T11:53:59.517Z,90.50
2022-11-16T11:56:43.008Z,90.38
2022-11-16T11:59:27.787Z,90.15
2022-11-16T12:02:42.811Z,89.61
2022-11-16T12:05:55.265Z,90.00
2022-11-16T12:09:03.510Z,89.88
2022-11-16T12:12:14.646Z,89.63
2022-11-16T12:15:07.436Z,89.89
2022-11-16T12:18:43.610Z,89.26
2022-11-16T12:21:32.739Z,88.72
2022-11-16T12:24:47.818Z,89.69
2022-11-16T12:27:57.065Z,88.88
2022-11-16T12:31:16.960Z,89.79
2022-11-16T12:34:47.880Z,89.22
2022-11-16T12:37:49.765Z,88.67
2022-11-16T12:41:18.720Z,89.13
2022-11-16T12:44:14.997Z,88.58
2022-11-16T12:47:25.361Z,88.56
2022-11-16T12:50:52.118Z,88.09
2022-11-16T12:53:47.563Z,88.77
2022-11-16T12:57:11.388Z,88.82
2022-11-16T13:00:16.685Z,88.27
2022-11-16T13:03:46.839Z,87.76
2022-11-16T13:06:50.060Z,88.35
2022-11-16T13:09:40.473Z,88.04
2022-11-16T13:12:27.782Z,88.27
2022-11-16T13:15:25.043Z,87.86
2022-11-16T13:18:19.959Z,87.89
2022-11-16T13:21:27.646Z,88.03
2022-11-16T13:24:44.264Z,87.91
2022-11-16T13:27:38.860Z,87.91
2022-11-16T13:31:39.151Z,87.99
2022-11-16T13:34:32.804Z,87.77
2022-11-16T13:37:37.875Z,87.20
2022-11-16T13:40:29.813Z,87.03
2022-11-16T13:43:13.267Z,87.40
2022-11-16T13:46:01.015Z,86.42
2022-11-16T13:48:46.729Z,86.61
2022-11-16T13:51:30.788Z,86.52
2022-11-16T13:57:34.641Z,86.63
2022-11-16T14:00:28.441Z,86.02
2022-11-16T14:03:18.287Z,85.34
2022-11-16T14:06:02.052Z,85.40
2022-11-16T14:08:57.457Z,85.71
2022-11-16T14:15:37.390Z,85.16
2022-11-16T14:18:20.787Z,84.53
2022-11-16T14:26:23.436Z,84.84
2022-11-16T14:29:58.552Z,84.98
2022-11-16T14:32:49.078Z,85.24
2022-11-16T14:35:55.585Z,86.11
2022-11-16T14:38:42.783Z,86.75
2022-11-16T14:41:26.409Z,86.05
2022-11-16T14:44:12.166Z,85.72
2022-11-16T14:46:56.505Z,86.56
2022-11-16T14:49:47.982Z,86.88
2022-11-16T14:52:47.685Z,87.23
2022-11-16T14:55:31.382Z,86.71
2022-11-16T14:58:22.736Z,87.11
2022-11-16T15:01:15.037Z,87.30
2022-11-16T15:04:08.462Z,88.44
2022-11-16T15:07:01.839Z,87.92
2022-11-16T15:09:52.544Z,87.47
2022-11-16T15:12:55.873Z,88.24
2022-11-16T15:19:20.647Z,87.79
2022-11-16T15:22:04.790Z,88.39
2022-11-16T15:24:59.739Z,88.71
2022-11-16T15:27:43.551Z,88.32
2022-11-16T15:30:33.360Z,89.25
2022-11-16T15:33:22.555Z,89.49
2022-11-16T15:36:33.068Z,89.96
2022-11-16T15:39:25.577Z,89.60
2022-11-16T15:42:16.043Z,89.83
2022-11-16T15:45:20.936Z,89.17
2022-11-16T15:48:06.155Z,90.31
2022-11-16T15:51:14.370Z,90.96
2022-11-16T15:54:22.432Z,90.58
2022-11-16T15:57:12.335Z,90.73
2022-11-16T15:59:58.060Z,90.50
2022-11-16T16:02:45.465Z,90.86
2022-11-16T16:05:41.601Z,90.80
2022-11-16T16:08:32.932Z,90.84
2022-11-16T16:11:16.613Z,90.77
2022-11-16T16:14:05.483Z,90.28
2022-11-16T16:17:02.779Z,89.79
2022-11-16T16:20:06.500Z,89.81
2022-11-16T16:22:52.047Z,89.90
2022-11-16T16:25:37.221Z,89.41
2022-11-16T16:28:21.123Z,90.22
2022-11-16T16:31:05.180Z,90.93
2022-11-16T16:33:49.214Z,90.21
2022-11-16T16:36:33.311Z,90.27
2022-11-16T16:39:17.573Z,90.34
2022-11-16T16:42:02.264Z,90.54
2022-11-16T16:44:48.445Z,89.87
2022-11-16T16:47:32.376Z,89.86
2022-11-16T16:50:16.714Z,90.16
2022-11-16T16:53:00.635Z,89.67
2022-11-16T16:55:49.248Z,89.73
2022-11-16T16:58:38.113Z,90.21
2022-11-16T17:01:25.574Z,90.00
2022-11-16T17:04:12.851Z,89.48
2022-11-16T17:06:58.486Z,90.21
2022-11-16T17:09:42.879Z,89.57
2022-11-16T17:12:26.608Z,88.59
2022-11-16T17:15:12.854Z,88.23
2022-11-16T17:18:00.525Z,88.49
2022-11-16T17:20:45.593Z,88.70
2022-11-16T17:23:29.646Z,88.37
2022-11-16T17:26:13.694Z,88.16
2022-11-16T17:28:58.152Z,87.72
2022-11-16T17:31:43.749Z,87.69
2022-11-16T17:34:27.360Z,87.88
2022-11-16T17:37:10.782Z,87.44
2022-11-16T17:39:54.239Z,87.33
2022-11-16T17:42:37.901Z,87.89
2022-11-16T17:45:21.521Z,87.95
2022-11-16T17:48:05.655Z,87.51
2022-11-16T17:50:50.772Z,87.63
2022-11-16T17:53:36.300Z,88.16
2022-11-16T17:56:27.498Z,88.30
2022-11-16T17:59:11.283Z,87.49
2022-11-16T18:01:54.810Z,87.66
2022-11-16T18:04:38.311Z,86.99
2022-11-16T18:07:21.830Z,87.06
2022-11-16T18:10:06.277Z,86.84
2022-11-16T18:12:50.091Z,86.56
2022-11-16T18:15:42.290Z,86.07
2022-11-16T18:18:26.480Z,85.92
2022-11-16T18:21:15.906Z,86.44
2022-11-16T18:24:03.599Z,87.17
2022-11-16T18:26:47.057Z,86.64
2022-11-16T18:29:30.519Z,86.66
2022-11-16T18:32:13.964Z,86.44
2022-11-16T18:34:57.475Z,86.04
2022-11-16T18:37:41.120Z,86.03
2022-11-16T18:40:24.649Z,86.16
2022-11-16T18:43:14.298Z,85.86
2022-11-16T18:45:57.790Z,85.99
2022-11-16T18:48:43.026Z,85.08
2022-11-16T18:51:28.593Z,84.91
2022-11-16T18:54:12.111Z,85.50
2022-11-16T18:56:55.810Z,85.42
2022-11-16T18:59:39.232Z,84.62
2022-11-16T19:02:22.722Z,84.67
2022-11-16T19:05:07.560Z,84.47
2022-11-16T19:07:51.393Z,84.50
2022-11-16T19:10:41.084Z,84.82
2022-11-16T19:13:24.574Z,84.46
2022-11-16T19:16:10.438Z,84.42
2022-11-16T19:18:54.106Z,83.54
2022-11-16T19:21:37.606Z,83.30
2022-11-16T19:24:21.029Z,82.76
2022-11-16T19:27:04.531Z,83.17
2022-11-16T19:29:47.982Z,82.82
2022-11-16T19:32:32.208Z,82.42
2022-11-16T19:35:16.417Z,82.54
2022-11-16T19:38:00.249Z,82.36
2022-11-16T19:40:43.666Z,82.26
2022-11-16T19:43:27.132Z,81.89
2022-11-16T19:46:13.619Z,81.89
2022-11-16T19:48:57.564Z,81.75
2022-11-16T19:51:41.085Z,82.02
2022-11-16T19:54:24.539Z,81.50
2022-11-16T19:57:08.035Z,81.75
2022-11-16T19:59:51.668Z,82.18
2022-11-16T20:02:36.769Z,81.92
2022-11-16T20:05:20.319Z,81.31
2022-11-16T20:08:04.087Z,80.98
2022-11-16T20:10:47.601Z,81.24
2022-11-16T20:13:31.432Z,81.55
2022-11-16T20:16:17.635Z,81.39
2022-11-16T20:19:01.583Z,81.04
2022-11-16T20:21:45.247Z,81.59
2022-11-16T20:24:28.963Z,81.23
2022-11-16T20:27:12.383Z,81.09
2022-11-16T20:29:55.909Z,80.45
2022-11-16T20:32:39.352Z,80.42
2022-11-16T20:35:22.922Z,81.42
2022-11-16T20:38:06.418Z,81.04
2022-11-16T20:40:49.834Z,81.35
2022-11-16T20:43:33.647Z,80.67
2022-11-16T20:46:19.643Z,80.69
2022-11-16T20:49:03.330Z,80.82
2022-11-16T20:51:51.123Z,81.12
2022-11-16T20:54:34.580Z,81.81
2022-11-16T20:57:18.068Z,81.71
2022-11-16T21:00:01.715Z,81.48
2022-11-16T21:02:45.303Z,80.98
2022-11-16T21:05:29.007Z,81.92
2022-11-16T21:08:13.532Z,81.74
2022-11-16T21:10:57.247Z,81.67
2022-11-16T21:13:59.778Z,81.66
2022-11-16T21:16:43.786Z,81.22
2022-11-16T21:19:27.245Z,81.51
2022-11-16T21:22:10.652Z,81.69
2022-11-16T21:24:54.131Z,81.13
2022-11-16T21:27:37.604Z,80.74
2022-11-16T21:30:21.036Z,80.74
2022-11-16T21:33:04.516Z,81.22
2022-11-16T21:35:48.173Z,81.23
2022-11-16T21:38:32.686Z,81.21
2022-11-16T21:41:18.236Z,80.96
2022-11-16T21:44:01.655Z,80.45
2022-11-16T21:46:45.097Z,80.69
2022-11-16T21:49:28.582Z,80.22
2022-11-16T21:52:12.010Z,79.90
2022-11-16T21:55:01.189Z,80.32
2022-11-16T21:57:44.613Z,80.11
2022-11-16T22:00:28.093Z,80.46
2022-11-16T22:03:11.515Z,80.18
2022-11-16T22:06:18.424Z,80.63
2022-11-16T22:09:02.151Z,80.99
2022-11-16T22:11:45.616Z,81.35
2022-11-16T22:14:29.154Z,81.45
2022-11-16T22:17:12.563Z,80.58
2022-11-16T22:19:56.035Z,81.29
2022-11-16T22:22:40.057Z,81.14
2022-11-16T22:25:23.633Z,80.76
2022-11-16T22:28:20.725Z,80.54
2022-11-16T22:31:09.344Z,79.86
2022-11-16T22:33:53.836Z,80.55
2022-11-16T22:36:37.261Z,80.43
2022-11-16T22:39:20.662Z,80.10
2022-11-16T22:42:04.601Z,79.57
2022-11-16T22:44:48.044Z,79.91
2022-11-16T22:47:33.461Z,80.08
2022-11-16T22:50:17.007Z,80.05
2022-11-16T22:53:00.423Z,80.88
2022-11-16T22:55:44.664Z,80.44
2022-11-16T22:58:28.101Z,80.23
2022-11-16T23:01:11.517Z,80.13
2022-11-16T23:03:55.272Z,80.76
2022-11-16T23:06:38.751Z,80.44
2022-11-16T23:09:22.179Z,81.90
2022-11-16T23:12:24.507Z,81.57
2022-11-16T23:15:31.798Z,81.52
2022-11-16T23:18:15.666Z,81.27
2022-11-16T23:21:17.367Z,82.01
2022-11-16T23:24:19.430Z,82.12
2022-11-16T23:27:23.294Z,82.46
2022-11-16T23:30:12.443Z,82.69
2022-11-16T23:32:56.704Z,82.75
2022-11-16T23:35:40.121Z,81.94
2022-11-16T23:38:23.746Z,80.97
2022-11-16T23:41:26.015Z,82.18
2022-11-16T23:44:09.466Z,82.14
2022-11-16T23:46:52.874Z,81.51
2022-11-16T23:49:36.368Z,81.57
2022-11-16T23:52:19.823Z,82.77
2022-11-16T23:55:03.356Z,82.57
2022-11-16T23:57:46.776Z,82.46
